Terminal Aerodrome Forecast
Issued by NWS

Home | Current Version | Previous Version | Graphics & Text | Print | Product List | Glossary On
Versions: 1 2 3 4 5 6 7 8 9 10 11 12 13 14 15 16 17 18 19 20 21 22 23 24 25 26
000
FTUS43 KABR 301739
TAFPIR
TAF
KPIR 301739Z 3018/0118 32019G29KT 5SM BLSN VCSH OVC015
     FM302100 31020G28KT P6SM VCSH OVC010
     FM302300 31018G26KT P6SM OVC010
     FM010200 31013KT P6SM OVC015
     FM010600 30011KT P6SM OVC015=

USA.gov is the U.S. government's official web portal to all federal, state and local government web resources and services.